sensor_id;sensor_type;location;lat;lon;timestamp;temperature;humidity
63051;SHT30;49136;47.416;19.402;2023-11-21T00:00:01;1.91;99.99
63051;SHT30;49136;47.416;19.402;2023-11-21T00:02:27;1.78;99.99
63051;SHT30;49136;47.416;19.402;2023-11-21T00:04:53;1.73;99.99
63051;SHT30;49136;47.416;19.402;2023-11-21T00:07:19;1.70;99.99
63051;SHT30;49136;47.416;19.402;2023-11-21T00:09:44;1.66;99.99
63051;SHT30;49136;47.416;19.402;2023-11-21T00:12:10;1.67;99.99
63051;SHT30;49136;47.416;19.402;2023-11-21T00:14:38;1.91;99.99
63051;SHT30;49136;47.416;19.402;2023-11-21T00:17:04;1.94;99.99
63051;SHT30;49136;47.416;19.402;2023-11-21T00:19:30;1.98;99.99
63051;SHT30;49136;47.416;19.402;2023-11-21T00:21:56;2.01;99.99
63051;SHT30;49136;47.416;19.402;2023-11-21T00:24:23;1.93;99.99
63051;SHT30;49136;47.416;19.402;2023-11-21T00:26:50;1.81;99.99
63051;SHT30;49136;47.416;19.402;2023-11-21T00:29:15;1.73;99.99
63051;SHT30;49136;47.416;19.402;2023-11-21T00:31:43;1.67;99.99
63051;SHT30;49136;47.416;19.402;2023-11-21T00:34:08;1.70;99.99
63051;SHT30;49136;47.416;19.402;2023-11-21T00:36:34;1.66;99.99
63051;SHT30;49136;47.416;19.402;2023-11-21T00:39:00;1.61;99.99
63051;SHT30;49136;47.416;19.402;2023-11-21T00:41:26;1.56;99.99
63051;SHT30;49136;47.416;19.402;2023-11-21T00:43:53;1.50;99.99
63051;SHT30;49136;47.416;19.402;2023-11-21T00:46:19;1.44;99.99
63051;SHT30;49136;47.416;19.402;2023-11-21T00:48:44;1.42;99.99
63051;SHT30;49136;47.416;19.402;2023-11-21T00:51:09;1.46;99.99
63051;SHT30;49136;47.416;19.402;2023-11-21T00:53:35;1.40;99.99
63051;SHT30;49136;47.416;19.402;2023-11-21T00:56:00;1.36;99.99
63051;SHT30;49136;47.416;19.402;2023-11-21T00:58:26;1.40;99.99
63051;SHT30;49136;47.416;19.402;2023-11-21T01:00:52;1.50;99.99
63051;SHT30;49136;47.416;19.402;2023-11-21T01:03:18;1.44;99.99
63051;SHT30;49136;47.416;19.402;2023-11-21T01:05:43;1.43;99.99
63051;SHT30;49136;47.416;19.402;2023-11-21T01:08:09;1.38;99.99
63051;SHT30;49136;47.416;19.402;2023-11-21T01:10:35;1.31;99.99
63051;SHT30;49136;47.416;19.402;2023-11-21T01:13:01;1.26;99.99
63051;SHT30;49136;47.416;19.402;2023-11-21T01:15:27;1.28;99.99
63051;SHT30;49136;47.416;19.402;2023-11-21T01:17:52;1.25;99.99
63051;SHT30;49136;47.416;19.402;2023-11-21T01:20:18;1.17;99.99
63051;SHT30;49136;47.416;19.402;2023-11-21T01:22:43;1.26;99.99
63051;SHT30;49136;47.416;19.402;2023-11-21T01:25:09;1.57;99.99
63051;SHT30;49136;47.416;19.402;2023-11-21T01:27:36;1.47;99.99
63051;SHT30;49136;47.416;19.402;2023-11-21T01:30:02;1.44;99.99
63051;SHT30;49136;47.416;19.402;2023-11-21T01:32:28;1.36;99.99
63051;SHT30;49136;47.416;19.402;2023-11-21T01:34:54;1.31;99.99
63051;SHT30;49136;47.416;19.402;2023-11-21T01:37:20;1.26;99.99
63051;SHT30;49136;47.416;19.402;2023-11-21T01:39:47;1.25;99.99
63051;SHT30;49136;47.416;19.402;2023-11-21T01:42:12;1.18;99.99
63051;SHT30;49136;47.416;19.402;2023-11-21T01:44:38;1.28;99.99
63051;SHT30;49136;47.416;19.402;2023-11-21T01:47:05;1.63;99.99
63051;SHT30;49136;47.416;19.402;2023-11-21T01:49:35;1.49;99.99
63051;SHT30;49136;47.416;19.402;2023-11-21T01:52:01;1.40;99.99
63051;SHT30;49136;47.416;19.402;2023-11-21T01:54:27;1.34;99.99
63051;SHT30;49136;47.416;19.402;2023-11-21T01:56:57;1.29;99.99
63051;SHT30;49136;47.416;19.402;2023-11-21T01:59:31;1.28;99.99
63051;SHT30;49136;47.416;19.402;2023-11-21T02:01:59;1.28;99.99
63051;SHT30;49136;47.416;19.402;2023-11-21T02:04:24;1.22;99.99
63051;SHT30;49136;47.416;19.402;2023-11-21T02:06:50;1.28;99.99
63051;SHT30;49136;47.416;19.402;2023-11-21T02:09:16;1.21;99.99
63051;SHT30;49136;47.416;19.402;2023-11-21T02:11:42;1.24;99.99
63051;SHT30;49136;47.416;19.402;2023-11-21T02:14:09;1.21;99.99
63051;SHT30;49136;47.416;19.402;2023-11-21T02:16:35;1.31;99.99
63051;SHT30;49136;47.416;19.402;2023-11-21T02:19:02;1.32;99.99
63051;SHT30;49136;47.416;19.402;2023-11-21T02:21:28;1.32;99.99
63051;SHT30;49136;47.416;19.402;2023-11-21T02:23:55;1.32;99.99
63051;SHT30;49136;47.416;19.402;2023-11-21T02:26:21;1.39;99.99
63051;SHT30;49136;47.416;19.402;2023-11-21T02:28:46;1.39;99.99
63051;SHT30;49136;47.416;19.402;2023-11-21T02:31:11;1.44;99.99
63051;SHT30;49136;47.416;19.402;2023-11-21T02:33:37;1.46;99.99
63051;SHT30;49136;47.416;19.402;2023-11-21T02:36:04;1.56;99.99
63051;SHT30;49136;47.416;19.402;2023-11-21T02:38:30;1.68;99.99
63051;SHT30;49136;47.416;19.402;2023-11-21T02:40:57;1.74;99.99
63051;SHT30;49136;47.416;19.402;2023-11-21T02:43:24;1.89;99.99
63051;SHT30;49136;47.416;19.402;2023-11-21T02:45:49;1.93;99.99
63051;SHT30;49136;47.416;19.402;2023-11-21T02:48:15;1.98;99.99
63051;SHT30;49136;47.416;19.402;2023-11-21T02:50:40;1.91;99.99
63051;SHT30;49136;47.416;19.402;2023-11-21T02:53:05;1.88;99.99
63051;SHT30;49136;47.416;19.402;2023-11-21T02:55:31;1.94;99.99
63051;SHT30;49136;47.416;19.402;2023-11-21T02:58:00;1.85;99.99
63051;SHT30;49136;47.416;19.402;2023-11-21T03:00:25;1.84;99.99
63051;SHT30;49136;47.416;19.402;2023-11-21T03:02:51;1.85;99.99
63051;SHT30;49136;47.416;19.402;2023-11-21T03:05:17;1.79;99.99
63051;SHT30;49136;47.416;19.402;2023-11-21T03:07:42;1.81;99.99
63051;SHT30;49136;47.416;19.402;2023-11-21T03:10:08;1.82;99.99
63051;SHT30;49136;47.416;19.402;2023-11-21T03:12:40;1.81;99.99
63051;SHT30;49136;47.416;19.402;2023-11-21T03:15:06;1.75;99.99
63051;SHT30;49136;47.416;19.402;2023-11-21T03:17:32;1.74;99.99
63051;SHT30;49136;47.416;19.402;2023-11-21T03:19:59;1.73;99.99
63051;SHT30;49136;47.416;19.402;2023-11-21T03:22:25;1.73;99.99
63051;SHT30;49136;47.416;19.402;2023-11-21T03:24:50;1.77;99.99
63051;SHT30;49136;47.416;19.402;2023-11-21T03:27:15;1.79;99.99
63051;SHT30;49136;47.416;19.402;2023-11-21T03:29:41;1.87;99.99
63051;SHT30;49136;47.416;19.402;2023-11-21T03:32:07;1.84;99.99
63051;SHT30;49136;47.416;19.402;2023-11-21T03:34:32;1.82;99.99
63051;SHT30;49136;47.416;19.402;2023-11-21T03:36:57;1.82;99.99
63051;SHT30;49136;47.416;19.402;2023-11-21T03:39:23;1.85;99.99
63051;SHT30;49136;47.416;19.402;2023-11-21T03:41:50;1.89;99.99
63051;SHT30;49136;47.416;19.402;2023-11-21T03:44:17;1.91;99.99
63051;SHT30;49136;47.416;19.402;2023-11-21T03:46:43;2.05;99.99
63051;SHT30;49136;47.416;19.402;2023-11-21T03:49:09;2.12;99.99
63051;SHT30;49136;47.416;19.402;2023-11-21T03:51:36;2.16;99.99
63051;SHT30;49136;47.416;19.402;2023-11-21T03:54:02;2.08;99.99
63051;SHT30;49136;47.416;19.402;2023-11-21T03:56:27;2.01;99.99
63051;SHT30;49136;47.416;19.402;2023-11-21T03:58:53;1.99;99.99
63051;SHT30;49136;47.416;19.402;2023-11-21T04:01:22;2.01;99.99
63051;SHT30;49136;47.416;19.402;2023-11-21T04:03:48;1.99;99.99
63051;SHT30;49136;47.416;19.402;2023-11-21T04:06:14;1.95;99.99
63051;SHT30;49136;47.416;19.402;2023-11-21T04:08:40;1.95;99.99
63051;SHT30;49136;47.416;19.402;2023-11-21T04:11:05;1.95;99.99
63051;SHT30;49136;47.416;19.402;2023-11-21T04:13:31;1.99;99.99
63051;SHT30;49136;47.416;19.402;2023-11-21T04:15:56;1.99;99.99
63051;SHT30;49136;47.416;19.402;2023-11-21T04:18:21;1.94;99.99
63051;SHT30;49136;47.416;19.402;2023-11-21T04:20:48;1.94;99.99
63051;SHT30;49136;47.416;19.402;2023-11-21T04:23:14;1.93;99.99
63051;SHT30;49136;47.416;19.402;2023-11-21T04:25:40;2.06;99.99
63051;SHT30;49136;47.416;19.402;2023-11-21T04:28:05;2.15;99.99
63051;SHT30;49136;47.416;19.402;2023-11-21T04:30:31;2.18;99.99
63051;SHT30;49136;47.416;19.402;2023-11-21T04:32:58;2.18;99.99
63051;SHT30;49136;47.416;19.402;2023-11-21T04:35:23;2.20;99.99
63051;SHT30;49136;47.416;19.402;2023-11-21T04:37:49;2.19;99.99
63051;SHT30;49136;47.416;19.402;2023-11-21T04:40:16;2.19;99.99
63051;SHT30;49136;47.416;19.402;2023-11-21T04:42:41;2.18;99.99
63051;SHT30;49136;47.416;19.402;2023-11-21T04:45:07;2.11;99.99
63051;SHT30;49136;47.416;19.402;2023-11-21T04:47:37;2.08;99.99
63051;SHT30;49136;47.416;19.402;2023-11-21T04:50:04;2.12;99.99
63051;SHT30;49136;47.416;19.402;2023-11-21T04:52:30;2.12;99.99
63051;SHT30;49136;47.416;19.402;2023-11-21T04:54:55;2.12;99.99
63051;SHT30;49136;47.416;19.402;2023-11-21T04:57:22;2.13;99.99
63051;SHT30;49136;47.416;19.402;2023-11-21T04:59:49;2.16;99.99
63051;SHT30;49136;47.416;19.402;2023-11-21T05:02:14;2.19;99.99
63051;SHT30;49136;47.416;19.402;2023-11-21T05:04:40;2.26;99.99
63051;SHT30;49136;47.416;19.402;2023-11-21T05:07:08;2.40;99.99
63051;SHT30;49136;47.416;19.402;2023-11-21T05:09:33;2.43;99.99
63051;SHT30;49136;47.416;19.402;2023-11-21T05:11:59;2.46;99.99
63051;SHT30;49136;47.416;19.402;2023-11-21T05:14:25;2.44;99.99
63051;SHT30;49136;47.416;19.402;2023-11-21T05:16:50;2.47;99.99
63051;SHT30;49136;47.416;19.402;2023-11-21T05:19:17;2.51;99.99
63051;SHT30;49136;47.416;19.402;2023-11-21T05:21:42;2.51;99.99
63051;SHT30;49136;47.416;19.402;2023-11-21T05:24:08;2.51;99.99
63051;SHT30;49136;47.416;19.402;2023-11-21T05:26:33;2.53;99.99
63051;SHT30;49136;47.416;19.402;2023-11-21T05:28:59;2.53;99.99
63051;SHT30;49136;47.416;19.402;2023-11-21T05:31:24;2.57;99.99
63051;SHT30;49136;47.416;19.402;2023-11-21T05:33:50;2.60;99.99
63051;SHT30;49136;47.416;19.402;2023-11-21T05:36:15;2.61;99.99
63051;SHT30;49136;47.416;19.402;2023-11-21T05:38:41;2.62;99.99
63051;SHT30;49136;47.416;19.402;2023-11-21T05:41:16;2.77;99.99
63051;SHT30;49136;47.416;19.402;2023-11-21T05:43:45;2.82;99.99
63051;SHT30;49136;47.416;19.402;2023-11-21T05:46:10;2.84;99.99
63051;SHT30;49136;47.416;19.402;2023-11-21T05:48:36;2.85;99.99
63051;SHT30;49136;47.416;19.402;2023-11-21T05:51:06;2.87;99.99
63051;SHT30;49136;47.416;19.402;2023-11-21T05:53:33;2.91;99.99
63051;SHT30;49136;47.416;19.402;2023-11-21T05:55:58;2.96;99.99
63051;SHT30;49136;47.416;19.402;2023-11-21T05:58:24;3.02;99.99
63051;SHT30;49136;47.416;19.402;2023-11-21T06:00:49;3.03;99.99
63051;SHT30;49136;47.416;19.402;2023-11-21T06:03:15;3.07;99.99
63051;SHT30;49136;47.416;19.402;2023-11-21T06:05:40;3.14;99.99
63051;SHT30;49136;47.416;19.402;2023-11-21T06:08:05;3.23;99.99
63051;SHT30;49136;47.416;19.402;2023-11-21T06:10:32;3.31;99.99
63051;SHT30;49136;47.416;19.402;2023-11-21T06:12:58;3.34;99.99
63051;SHT30;49136;47.416;19.402;2023-11-21T06:15:23;3.41;99.99
63051;SHT30;49136;47.416;19.402;2023-11-21T06:17:49;3.51;99.99
63051;SHT30;49136;47.416;19.402;2023-11-21T06:20:18;3.52;99.99
63051;SHT30;49136;47.416;19.402;2023-11-21T06:22:47;3.57;99.99
63051;SHT30;49136;47.416;19.402;2023-11-21T06:25:13;3.55;99.99
63051;SHT30;49136;47.416;19.402;2023-11-21T06:27:41;3.57;99.99
63051;SHT30;49136;47.416;19.402;2023-11-21T06:30:07;3.59;99.99
63051;SHT30;49136;47.416;19.402;2023-11-21T06:32:34;3.65;99.99
63051;SHT30;49136;47.416;19.402;2023-11-21T06:35:01;3.79;99.99
63051;SHT30;49136;47.416;19.402;2023-11-21T06:37:27;3.93;99.99
63051;SHT30;49136;47.416;19.402;2023-11-21T06:39:53;3.94;99.99
63051;SHT30;49136;47.416;19.402;2023-11-21T06:42:19;3.92;99.99
63051;SHT30;49136;47.416;19.402;2023-11-21T06:44:45;3.92;99.99
63051;SHT30;49136;47.416;19.402;2023-11-21T06:47:11;3.90;99.99
63051;SHT30;49136;47.416;19.402;2023-11-21T06:49:36;3.92;99.99
63051;SHT30;49136;47.416;19.402;2023-11-21T06:52:03;3.96;99.99
63051;SHT30;49136;47.416;19.402;2023-11-21T06:54:31;3.96;99.99
63051;SHT30;49136;47.416;19.402;2023-11-21T06:56:56;3.99;99.99
63051;SHT30;49136;47.416;19.402;2023-11-21T06:59:22;4.01;99.99
63051;SHT30;49136;47.416;19.402;2023-11-21T07:01:47;4.04;99.99
63051;SHT30;49136;47.416;19.402;2023-11-21T07:04:13;4.07;99.99
63051;SHT30;49136;47.416;19.402;2023-11-21T07:06:38;4.10;99.99
63051;SHT30;49136;47.416;19.402;2023-11-21T07:19:48;4.31;99.99
63051;SHT30;49136;47.416;19.402;2023-11-21T07:22:15;4.34;99.99
63051;SHT30;49136;47.416;19.402;2023-11-21T07:28:09;4.49;99.99
63051;SHT30;49136;47.416;19.402;2023-11-21T07:30:43;4.53;99.99
63051;SHT30;49136;47.416;19.402;2023-11-21T07:33:28;4.58;99.99
63051;SHT30;49136;47.416;19.402;2023-11-21T07:35:54;4.60;99.99
63051;SHT30;49136;47.416;19.402;2023-11-21T07:41:42;4.73;99.99
63051;SHT30;49136;47.416;19.402;2023-11-21T07:44:14;4.77;99.99
63051;SHT30;49136;47.416;19.402;2023-11-21T07:46:40;4.83;99.99
63051;SHT30;49136;47.416;19.402;2023-11-21T07:49:16;4.88;99.99
63051;SHT30;49136;47.416;19.402;2023-11-21T07:52:22;4.95;99.99
63051;SHT30;49136;47.416;19.402;2023-11-21T07:55:08;5.03;99.99
63051;SHT30;49136;47.416;19.402;2023-11-21T07:58:09;5.08;99.99
63051;SHT30;49136;47.416;19.402;2023-11-21T08:00:38;5.11;99.99
63051;SHT30;49136;47.416;19.402;2023-11-21T08:03:04;5.14;99.99
63051;SHT30;49136;47.416;19.402;2023-11-21T08:05:31;5.19;99.99
63051;SHT30;49136;47.416;19.402;2023-11-21T08:07:58;5.22;99.99
63051;SHT30;49136;47.416;19.402;2023-11-21T08:10:58;5.28;99.99
63051;SHT30;49136;47.416;19.402;2023-11-21T08:13:29;5.32;99.99
63051;SHT30;49136;47.416;19.402;2023-11-21T08:16:06;5.38;99.99
63051;SHT30;49136;47.416;19.402;2023-11-21T08:18:42;5.39;99.99
63051;SHT30;49136;47.416;19.402;2023-11-21T08:24:36;5.52;99.99
63051;SHT30;49136;47.416;19.402;2023-11-21T08:27:02;5.53;99.99
63051;SHT30;49136;47.416;19.402;2023-11-21T08:29:29;5.57;99.99
63051;SHT30;49136;47.416;19.402;2023-11-21T08:31:56;5.62;99.99
63051;SHT30;49136;47.416;19.402;2023-11-21T08:34:22;5.64;99.99
63051;SHT30;49136;47.416;19.402;2023-11-21T08:36:47;5.70;99.99
63051;SHT30;49136;47.416;19.402;2023-11-21T08:39:13;5.71;99.99
63051;SHT30;49136;47.416;19.402;2023-11-21T08:41:38;5.74;99.99
63051;SHT30;49136;47.416;19.402;2023-11-21T08:44:04;5.80;99.99
63051;SHT30;49136;47.416;19.402;2023-11-21T08:46:33;5.81;99.99
63051;SHT30;49136;47.416;19.402;2023-11-21T08:49:01;5.91;99.99
63051;SHT30;49136;47.416;19.402;2023-11-21T08:51:26;5.93;99.99
63051;SHT30;49136;47.416;19.402;2023-11-21T08:53:51;5.93;99.99
63051;SHT30;49136;47.416;19.402;2023-11-21T08:56:18;5.99;99.99
63051;SHT30;49136;47.416;19.402;2023-11-21T08:58:45;6.01;99.99
63051;SHT30;49136;47.416;19.402;2023-11-21T09:01:12;6.04;99.99
63051;SHT30;49136;47.416;19.402;2023-11-21T09:03:37;6.09;99.99
63051;SHT30;49136;47.416;19.402;2023-11-21T09:06:03;6.15;99.99
63051;SHT30;49136;47.416;19.402;2023-11-21T09:08:29;6.21;99.99
63051;SHT30;49136;47.416;19.402;2023-11-21T09:10:55;6.28;99.99
63051;SHT30;49136;47.416;19.402;2023-11-21T09:13:20;6.33;99.99
63051;SHT30;49136;47.416;19.402;2023-11-21T09:15:46;6.44;99.99
63051;SHT30;49136;47.416;19.402;2023-11-21T09:18:14;6.50;99.99
63051;SHT30;49136;47.416;19.402;2023-11-21T09:20:41;6.57;99.99
63051;SHT30;49136;47.416;19.402;2023-11-21T09:23:07;6.58;99.99
63051;SHT30;49136;47.416;19.402;2023-11-21T09:25:33;6.67;99.99
63051;SHT30;49136;47.416;19.402;2023-11-21T09:27:58;6.74;99.99
63051;SHT30;49136;47.416;19.402;2023-11-21T09:30:25;6.81;99.99
63051;SHT30;49136;47.416;19.402;2023-11-21T09:32:51;6.81;99.99
63051;SHT30;49136;47.416;19.402;2023-11-21T09:35:17;6.84;99.99
63051;SHT30;49136;47.416;19.402;2023-11-21T09:37:44;6.82;99.99
63051;SHT30;49136;47.416;19.402;2023-11-21T09:40:11;6.82;99.99
63051;SHT30;49136;47.416;19.402;2023-11-21T09:42:56;6.85;99.99
63051;SHT30;49136;47.416;19.402;2023-11-21T09:47:55;6.88;99.99
63051;SHT30;49136;47.416;19.402;2023-11-21T09:50:22;6.89;99.99
63051;SHT30;49136;47.416;19.402;2023-11-21T09:55:32;6.98;99.99
63051;SHT30;49136;47.416;19.402;2023-11-21T09:58:02;6.95;99.99
63051;SHT30;49136;47.416;19.402;2023-11-21T10:00:28;6.99;99.99
63051;SHT30;49136;47.416;19.402;2023-11-21T10:02:58;6.99;99.99
63051;SHT30;49136;47.416;19.402;2023-11-21T10:05:23;6.95;99.99
63051;SHT30;49136;47.416;19.402;2023-11-21T10:07:53;7.00;99.99
63051;SHT30;49136;47.416;19.402;2023-11-21T10:10:21;6.98;99.99
63051;SHT30;49136;47.416;19.402;2023-11-21T10:12:50;6.98;99.99
63051;SHT30;49136;47.416;19.402;2023-11-21T10:15:21;7.02;99.99
63051;SHT30;49136;47.416;19.402;2023-11-21T10:17:49;7.08;99.99
63051;SHT30;49136;47.416;19.402;2023-11-21T10:20:15;7.13;99.99
63051;SHT30;49136;47.416;19.402;2023-11-21T10:22:42;7.16;99.99
63051;SHT30;49136;47.416;19.402;2023-11-21T10:25:10;7.20;99.99
63051;SHT30;49136;47.416;19.402;2023-11-21T10:27:40;7.17;99.99
63051;SHT30;49136;47.416;19.402;2023-11-21T10:30:06;7.20;99.99
63051;SHT30;49136;47.416;19.402;2023-11-21T10:32:44;7.23;99.99
63051;SHT30;49136;47.416;19.402;2023-11-21T10:35:10;7.23;99.99
63051;SHT30;49136;47.416;19.402;2023-11-21T10:37:39;7.24;99.99
63051;SHT30;49136;47.416;19.402;2023-11-21T10:40:09;7.26;99.99
63051;SHT30;49136;47.416;19.402;2023-11-21T10:42:41;7.30;99.99
63051;SHT30;49136;47.416;19.402;2023-11-21T10:45:10;7.34;99.99
63051;SHT30;49136;47.416;19.402;2023-11-21T10:47:42;7.31;99.99
63051;SHT30;49136;47.416;19.402;2023-11-21T10:50:08;7.38;99.99
63051;SHT30;49136;47.416;19.402;2023-11-21T10:52:37;7.40;99.99
63051;SHT30;49136;47.416;19.402;2023-11-21T10:55:16;7.41;99.99
63051;SHT30;49136;47.416;19.402;2023-11-21T10:57:41;7.48;99.99
63051;SHT30;49136;47.416;19.402;2023-11-21T11:00:07;7.47;99.99
63051;SHT30;49136;47.416;19.402;2023-11-21T11:02:37;7.51;99.99
63051;SHT30;49136;47.416;19.402;2023-11-21T11:05:03;7.57;99.99
63051;SHT30;49136;47.416;19.402;2023-11-21T11:07:31;7.61;99.99
63051;SHT30;49136;47.416;19.402;2023-11-21T11:09:59;7.59;99.99
63051;SHT30;49136;47.416;19.402;2023-11-21T11:12:25;7.67;99.99
63051;SHT30;49136;47.416;19.402;2023-11-21T11:14:51;7.69;99.99
63051;SHT30;49136;47.416;19.402;2023-11-21T11:17:19;7.74;99.99
63051;SHT30;49136;47.416;19.402;2023-11-21T11:19:46;7.75;99.99
63051;SHT30;49136;47.416;19.402;2023-11-21T11:25:30;7.78;99.99
63051;SHT30;49136;47.416;19.402;2023-11-21T11:28:04;7.75;99.99
63051;SHT30;49136;47.416;19.402;2023-11-21T11:33:33;7.83;99.99
63051;SHT30;49136;47.416;19.402;2023-11-21T11:36:06;7.78;99.99
63051;SHT30;49136;47.416;19.402;2023-11-21T11:38:34;7.83;99.99
63051;SHT30;49136;47.416;19.402;2023-11-21T11:41:04;7.85;99.99
63051;SHT30;49136;47.416;19.402;2023-11-21T11:43:30;7.83;99.99
63051;SHT30;49136;47.416;19.402;2023-11-21T11:45:58;7.85;99.99
63051;SHT30;49136;47.416;19.402;2023-11-21T11:48:25;7.90;99.99
63051;SHT30;49136;47.416;19.402;2023-11-21T11:51:20;7.96;99.99
63051;SHT30;49136;47.416;19.402;2023-11-21T11:53:51;8.00;99.99
63051;SHT30;49136;47.416;19.402;2023-11-21T11:56:25;8.03;99.99
63051;SHT30;49136;47.416;19.402;2023-11-21T11:58:56;8.06;99.99
63051;SHT30;49136;47.416;19.402;2023-11-21T12:01:23;8.03;99.99
63051;SHT30;49136;47.416;19.402;2023-11-21T12:06:41;8.09;99.99
63051;SHT30;49136;47.416;19.402;2023-11-21T12:09:06;8.11;99.99
63051;SHT30;49136;47.416;19.402;2023-11-21T12:11:32;8.10;99.99
63051;SHT30;49136;47.416;19.402;2023-11-21T12:13:58;8.11;99.99
63051;SHT30;49136;47.416;19.402;2023-11-21T12:16:25;8.16;99.99
63051;SHT30;49136;47.416;19.402;2023-11-21T12:18:53;8.19;99.99
63051;SHT30;49136;47.416;19.402;2023-11-21T12:21:19;8.23;99.99
63051;SHT30;49136;47.416;19.402;2023-11-21T12:23:45;8.26;99.99
63051;SHT30;49136;47.416;19.402;2023-11-21T12:26:13;8.27;99.99
63051;SHT30;49136;47.416;19.402;2023-11-21T12:28:39;8.28;99.99
63051;SHT30;49136;47.416;19.402;2023-11-21T12:31:05;8.30;99.99
63051;SHT30;49136;47.416;19.402;2023-11-21T12:33:34;8.27;99.99
63051;SHT30;49136;47.416;19.402;2023-11-21T12:36:00;8.28;99.99
63051;SHT30;49136;47.416;19.402;2023-11-21T12:38:34;8.30;99.99
63051;SHT30;49136;47.416;19.402;2023-11-21T12:41:00;8.30;99.99
63051;SHT30;49136;47.416;19.402;2023-11-21T12:43:26;8.30;99.99
63051;SHT30;49136;47.416;19.402;2023-11-21T12:46:04;8.30;99.99
63051;SHT30;49136;47.416;19.402;2023-11-21T12:48:31;8.34;99.99
63051;SHT30;49136;47.416;19.402;2023-11-21T12:50:57;8.35;99.99
63051;SHT30;49136;47.416;19.402;2023-11-21T12:53:25;8.38;99.99
63051;SHT30;49136;47.416;19.402;2023-11-21T12:55:51;8.42;99.99
63051;SHT30;49136;47.416;19.402;2023-11-21T12:58:17;8.46;99.99
63051;SHT30;49136;47.416;19.402;2023-11-21T13:00:49;8.52;99.99
63051;SHT30;49136;47.416;19.402;2023-11-21T13:03:16;8.54;99.99
63051;SHT30;49136;47.416;19.402;2023-11-21T13:05:45;8.55;99.99
63051;SHT30;49136;47.416;19.402;2023-11-21T13:08:12;8.58;99.99
63051;SHT30;49136;47.416;19.402;2023-11-21T13:10:43;8.56;99.99
63051;SHT30;49136;47.416;19.402;2023-11-21T13:13:18;8.59;99.99
63051;SHT30;49136;47.416;19.402;2023-11-21T13:15:53;8.55;99.99
63051;SHT30;49136;47.416;19.402;2023-11-21T13:18:24;8.56;99.99
63051;SHT30;49136;47.416;19.402;2023-11-21T13:20:52;8.54;99.99
63051;SHT30;49136;47.416;19.402;2023-11-21T13:23:18;8.54;99.99
63051;SHT30;49136;47.416;19.402;2023-11-21T13:25:44;8.51;99.99
63051;SHT30;49136;47.416;19.402;2023-11-21T13:28:11;8.45;99.99
63051;SHT30;49136;47.416;19.402;2023-11-21T13:30:37;8.46;99.99
63051;SHT30;49136;47.416;19.402;2023-11-21T13:33:05;8.48;99.99
63051;SHT30;49136;47.416;19.402;2023-11-21T13:35:34;8.46;99.99
63051;SHT30;49136;47.416;19.402;2023-11-21T13:40:33;8.38;99.99
63051;SHT30;49136;47.416;19.402;2023-11-21T13:43:05;8.38;99.99
63051;SHT30;49136;47.416;19.402;2023-11-21T13:45:38;8.37;99.99
63051;SHT30;49136;47.416;19.402;2023-11-21T13:48:07;8.33;99.99
63051;SHT30;49136;47.416;19.402;2023-11-21T13:50:43;8.30;99.99
63051;SHT30;49136;47.416;19.402;2023-11-21T13:53:14;8.28;99.99
63051;SHT30;49136;47.416;19.402;2023-11-21T13:55:52;8.26;99.99
63051;SHT30;49136;47.416;19.402;2023-11-21T13:58:20;8.24;99.99
63051;SHT30;49136;47.416;19.402;2023-11-21T14:00:57;8.17;99.99
63051;SHT30;49136;47.416;19.402;2023-11-21T14:03:23;8.17;99.99
63051;SHT30;49136;47.416;19.402;2023-11-21T14:05:50;8.11;99.99
63051;SHT30;49136;47.416;19.402;2023-11-21T14:08:26;8.03;99.99
63051;SHT30;49136;47.416;19.402;2023-11-21T14:10:54;7.99;99.99
63051;SHT30;49136;47.416;19.402;2023-11-21T14:13:24;7.90;99.99
63051;SHT30;49136;47.416;19.402;2023-11-21T14:15:51;7.89;99.99
63051;SHT30;49136;47.416;19.402;2023-11-21T14:18:23;7.83;99.99
63051;SHT30;49136;47.416;19.402;2023-11-21T14:20:56;7.75;99.99
63051;SHT30;49136;47.416;19.402;2023-11-21T14:23:21;7.68;99.99
63051;SHT30;49136;47.416;19.402;2023-11-21T14:25:49;7.65;99.99
63051;SHT30;49136;47.416;19.402;2023-11-21T14:28:18;7.57;99.99
63051;SHT30;49136;47.416;19.402;2023-11-21T14:30:45;7.50;99.99
63051;SHT30;49136;47.416;19.402;2023-11-21T14:33:12;7.50;99.99
63051;SHT30;49136;47.416;19.402;2023-11-21T14:35:37;7.46;99.99
63051;SHT30;49136;47.416;19.402;2023-11-21T14:38:03;7.40;99.99
63051;SHT30;49136;47.416;19.402;2023-11-21T14:40:32;7.24;99.99
63051;SHT30;49136;47.416;19.402;2023-11-21T14:43:00;7.17;99.99
63051;SHT30;49136;47.416;19.402;2023-11-21T14:45:26;7.17;99.99
63051;SHT30;49136;47.416;19.402;2023-11-21T14:47:52;7.05;99.99
63051;SHT30;49136;47.416;19.402;2023-11-21T14:50:36;6.91;99.99
63051;SHT30;49136;47.416;19.402;2023-11-21T14:53:08;6.80;99.99
63051;SHT30;49136;47.416;19.402;2023-11-21T14:55:35;6.70;99.99
63051;SHT30;49136;47.416;19.402;2023-11-21T14:58:17;6.60;99.99
63051;SHT30;49136;47.416;19.402;2023-11-21T15:00:57;6.47;99.99
63051;SHT30;49136;47.416;19.402;2023-11-21T15:03:24;6.50;99.99
63051;SHT30;49136;47.416;19.402;2023-11-21T15:05:57;6.41;99.99
63051;SHT30;49136;47.416;19.402;2023-11-21T15:08:22;6.41;99.99
63051;SHT30;49136;47.416;19.402;2023-11-21T15:10:55;6.36;99.99
63051;SHT30;49136;47.416;19.402;2023-11-21T15:13:21;6.33;99.99
63051;SHT30;49136;47.416;19.402;2023-11-21T15:15:52;6.22;99.99
63051;SHT30;49136;47.416;19.402;2023-11-21T15:18:20;6.14;99.99
63051;SHT30;49136;47.416;19.402;2023-11-21T15:20:46;6.04;99.99
63051;SHT30;49136;47.416;19.402;2023-11-21T15:23:11;5.97;99.99
63051;SHT30;49136;47.416;19.402;2023-11-21T15:26:04;6.01;99.99
63051;SHT30;49136;47.416;19.402;2023-11-21T15:28:30;5.97;99.99
63051;SHT30;49136;47.416;19.402;2023-11-21T15:30:57;5.97;99.99
63051;SHT30;49136;47.416;19.402;2023-11-21T15:33:23;5.87;99.99
63051;SHT30;49136;47.416;19.402;2023-11-21T15:35:48;5.80;99.99
63051;SHT30;49136;47.416;19.402;2023-11-21T15:38:14;5.77;99.99
63051;SHT30;49136;47.416;19.402;2023-11-21T15:40:39;5.91;99.99
63051;SHT30;49136;47.416;19.402;2023-11-21T15:43:05;5.74;99.99
63051;SHT30;49136;47.416;19.402;2023-11-21T15:45:32;5.73;99.99
63051;SHT30;49136;47.416;19.402;2023-11-21T15:47:58;5.64;99.99
63051;SHT30;49136;47.416;19.402;2023-11-21T15:50:24;5.56;99.99
63051;SHT30;49136;47.416;19.402;2023-11-21T15:52:50;5.50;99.99
63051;SHT30;49136;47.416;19.402;2023-11-21T15:55:16;5.56;99.99
63051;SHT30;49136;47.416;19.402;2023-11-21T15:57:42;5.56;99.99
63051;SHT30;49136;47.416;19.402;2023-11-21T16:00:08;5.54;99.99
63051;SHT30;49136;47.416;19.402;2023-11-21T16:02:42;5.56;99.99
63051;SHT30;49136;47.416;19.402;2023-11-21T16:05:08;5.49;99.99
63051;SHT30;49136;47.416;19.402;2023-11-21T16:07:34;5.43;99.99
63051;SHT30;49136;47.416;19.402;2023-11-21T16:10:00;5.35;99.99